createdAt,value
2018-03-02T00:00:05.757Z,998.62
2018-03-02T00:01:05.819Z,998.56
2018-03-02T00:02:05.649Z,998.58
2018-03-02T00:03:05.626Z,998.57
2018-03-02T00:04:05.610Z,998.53
2018-03-02T00:05:05.591Z,998.56
2018-03-02T00:06:05.581Z,998.59
2018-03-02T00:07:05.556Z,998.38
2018-03-02T00:08:05.538Z,998.00
2018-03-02T00:09:05.522Z,998.46
2018-03-02T00:10:05.508Z,998.53
2018-03-02T00:11:05.487Z,998.49
2018-03-02T00:12:05.464Z,998.50
2018-03-02T00:13:05.448Z,998.44
2018-03-02T00:14:05.436Z,998.49
2018-03-02T00:15:05.421Z,998.43
2018-03-02T00:16:05.394Z,998.44
2018-03-02T00:17:05.379Z,998.41
2018-03-02T00:18:05.359Z,998.38
2018-03-02T00:19:05.592Z,998.37
2018-03-02T00:20:05.323Z,998.23
2018-03-02T00:21:05.303Z,998.32
2018-03-02T00:22:05.287Z,998.15
2018-03-02T00:23:05.268Z,997.81
2018-03-02T00:24:05.247Z,998.27
2018-03-02T00:25:05.230Z,998.31
2018-03-02T00:26:05.211Z,998.32
2018-03-02T00:27:05.197Z,998.25
2018-03-02T00:28:05.176Z,998.28
2018-03-02T00:29:05.159Z,998.26
2018-03-02T00:30:05.142Z,998.28
2018-03-02T00:31:05.123Z,998.28
2018-03-02T00:32:05.102Z,998.31
2018-03-02T00:33:05.095Z,998.26
2018-03-02T00:34:05.069Z,998.26
2018-03-02T00:35:05.049Z,998.28
2018-03-02T00:36:05.033Z,998.26
2018-03-02T00:37:05.416Z,998.32
2018-03-02T00:38:04.999Z,997.99
2018-03-02T00:39:04.982Z,998.13
2018-03-02T00:40:04.958Z,998.26
2018-03-02T00:41:04.957Z,998.21
2018-03-02T00:42:04.926Z,998.25
2018-03-02T00:43:04.910Z,998.22
2018-03-02T00:44:04.900Z,998.21
2018-03-02T00:45:04.864Z,998.18
2018-03-02T00:46:04.847Z,998.18
2018-03-02T00:47:04.833Z,998.16
2018-03-02T00:48:04.824Z,998.12
2018-03-02T00:49:04.795Z,998.00
2018-03-02T00:50:04.779Z,998.08
2018-03-02T00:51:04.759Z,998.01
2018-03-02T00:52:04.745Z,998.10
2018-03-02T00:53:04.723Z,997.98
2018-03-02T00:54:04.702Z,998.04
2018-03-02T00:55:04.683Z,998.14
2018-03-02T00:56:04.670Z,998.07
2018-03-02T00:57:04.646Z,998.01
2018-03-02T00:58:04.625Z,997.96
2018-03-02T00:59:04.608Z,997.95
2018-03-02T01:00:04.592Z,998.05
2018-03-02T01:01:04.574Z,998.04
2018-03-02T01:02:04.557Z,998.02
2018-03-02T01:03:04.553Z,997.99
2018-03-02T01:04:04.515Z,997.98
2018-03-02T01:05:04.496Z,997.99
2018-03-02T01:06:04.485Z,997.96
2018-03-02T01:07:04.464Z,997.96
2018-03-02T01:08:04.442Z,997.93
2018-03-02T01:09:04.422Z,997.86
2018-03-02T01:10:04.404Z,997.93
2018-03-02T01:11:04.390Z,997.88
2018-03-02T01:12:04.370Z,997.94
2018-03-02T01:13:04.356Z,997.95
2018-03-02T01:14:04.335Z,997.86
2018-03-02T01:15:04.315Z,997.92
2018-03-02T01:16:04.318Z,997.79
2018-03-02T01:17:04.276Z,997.90
2018-03-02T01:18:04.256Z,997.87
2018-03-02T01:19:04.242Z,997.79
2018-03-02T01:20:04.223Z,997.89
2018-03-02T01:21:04.208Z,997.89
2018-03-02T01:22:04.185Z,997.87
2018-03-02T01:23:04.170Z,997.83
2018-03-02T01:24:04.146Z,997.85
2018-03-02T01:25:04.129Z,997.96
2018-03-02T01:26:04.109Z,997.97
2018-03-02T01:27:04.093Z,997.88
2018-03-02T01:28:04.078Z,997.96
2018-03-02T01:29:04.061Z,997.86
2018-03-02T01:30:04.040Z,997.85
2018-03-02T01:31:04.019Z,997.87
2018-03-02T01:32:04.012Z,997.82
2018-03-02T01:33:03.984Z,997.85
2018-03-02T01:34:03.962Z,997.78
2018-03-02T01:35:03.959Z,997.81
2018-03-02T01:36:03.927Z,997.79
2018-03-02T01:37:03.909Z,997.76
2018-03-02T01:38:03.892Z,997.74
2018-03-02T01:39:03.876Z,997.73
2018-03-02T01:40:03.853Z,997.78
2018-03-02T01:41:03.840Z,997.71
2018-03-02T01:42:03.821Z,997.58
2018-03-02T01:43:03.799Z,997.57
2018-03-02T01:44:03.776Z,997.59
2018-03-02T01:45:03.759Z,997.53
2018-03-02T01:46:03.739Z,997.52
2018-03-02T01:47:03.730Z,997.51
2018-03-02T01:48:03.706Z,997.47
2018-03-02T01:49:03.836Z,997.47
2018-03-02T01:50:03.671Z,997.43
2018-03-02T01:51:03.654Z,997.34
2018-03-02T01:52:03.633Z,997.40
2018-03-02T01:53:03.613Z,997.34
2018-03-02T01:54:03.592Z,997.36
2018-03-02T01:55:03.574Z,997.42
2018-03-02T01:56:03.557Z,997.29
2018-03-02T01:57:03.542Z,997.44
2018-03-02T01:58:03.521Z,997.46
2018-03-02T01:59:03.499Z,997.47
2018-03-02T02:00:03.480Z,997.43
2018-03-02T02:01:03.462Z,997.41
2018-03-02T02:02:03.447Z,997.42
2018-03-02T02:03:03.425Z,997.44
2018-03-02T02:04:03.404Z,997.38
2018-03-02T02:05:03.390Z,997.40
2018-03-02T02:06:03.366Z,997.44
2018-03-02T02:07:03.467Z,997.38
2018-03-02T02:08:03.330Z,997.38
2018-03-02T02:09:03.313Z,997.40
2018-03-02T02:10:03.294Z,997.41
2018-03-02T02:11:03.275Z,997.26
2018-03-02T02:12:03.256Z,997.34
2018-03-02T02:13:03.237Z,997.36
2018-03-02T02:14:03.224Z,997.35
2018-03-02T02:15:03.200Z,997.34
2018-03-02T02:16:03.181Z,997.35
2018-03-02T02:17:03.165Z,997.39
2018-03-02T02:18:03.141Z,997.39
2018-03-02T02:19:03.133Z,997.34
2018-03-02T02:20:03.107Z,997.29
2018-03-02T02:21:03.086Z,997.31
2018-03-02T02:22:03.068Z,997.31
2018-03-02T02:23:03.061Z,997.30
2018-03-02T02:24:03.029Z,997.30
2018-03-02T02:25:03.160Z,997.28
2018-03-02T02:26:03.003Z,997.23
2018-03-02T02:27:02.978Z,997.26
2018-03-02T02:28:02.956Z,997.27
2018-03-02T02:29:02.934Z,997.24
2018-03-02T02:30:02.918Z,997.34
2018-03-02T02:31:02.900Z,997.26
2018-03-02T02:32:02.884Z,997.27
2018-03-02T02:33:02.862Z,997.23
2018-03-02T02:34:02.845Z,997.14
2018-03-02T02:35:02.829Z,997.02
2018-03-02T02:36:02.803Z,997.16
2018-03-02T02:37:02.788Z,997.07
2018-03-02T02:38:02.765Z,997.08
2018-03-02T02:39:02.746Z,996.98
2018-03-02T02:40:02.732Z,997.07
2018-03-02T02:41:02.720Z,997.06
2018-03-02T02:42:02.695Z,997.08
2018-03-02T02:43:02.773Z,997.06
2018-03-02T02:44:02.672Z,997.07
2018-03-02T02:45:02.635Z,997.06
2018-03-02T02:46:02.617Z,997.05
2018-03-02T02:47:02.605Z,997.05
2018-03-02T02:48:02.576Z,996.97
2018-03-02T02:49:02.558Z,996.87
2018-03-02T02:50:02.538Z,997.09
2018-03-02T02:51:02.519Z,997.05
2018-03-02T02:52:02.501Z,996.98
2018-03-02T02:53:02.483Z,997.11
2018-03-02T02:54:02.464Z,997.05
2018-03-02T02:55:02.446Z,997.05
2018-03-02T02:56:02.428Z,997.01
2018-03-02T02:57:02.407Z,997.08
2018-03-02T02:58:02.385Z,996.96
2018-03-02T02:59:02.367Z,997.00
2018-03-02T03:00:02.355Z,997.01
2018-03-02T03:01:02.328Z,997.06
2018-03-02T03:02:02.310Z,997.08
2018-03-02T03:03:02.297Z,997.08
2018-03-02T03:04:02.273Z,997.06
2018-03-02T03:05:02.255Z,997.02
2018-03-02T03:06:02.244Z,997.02
2018-03-02T03:07:02.216Z,997.09
2018-03-02T03:08:02.196Z,997.06
2018-03-02T03:09:02.180Z,997.05
2018-03-02T03:10:02.157Z,996.99
2018-03-02T03:11:02.141Z,996.87
2018-03-02T03:12:02.122Z,997.03
2018-03-02T03:13:02.116Z,996.91
2018-03-02T03:14:02.083Z,996.95
2018-03-02T03:15:02.066Z,997.02
2018-03-02T03:16:02.057Z,996.98
2018-03-02T03:17:02.028Z,996.98
2018-03-02T03:18:02.007Z,996.97
2018-03-02T03:19:02.089Z,997.00
2018-03-02T03:20:01.967Z,996.92
2018-03-02T03:21:01.953Z,996.92
2018-03-02T03:22:01.932Z,996.86
2018-03-02T03:23:01.910Z,996.93
2018-03-02T03:24:01.895Z,996.88
2018-03-02T03:25:01.873Z,996.87
2018-03-02T03:26:01.854Z,996.96
2018-03-02T03:27:01.836Z,996.82
2018-03-02T03:28:01.814Z,996.83
2018-03-02T03:29:01.797Z,996.76
2018-03-02T03:30:01.778Z,996.80
2018-03-02T03:31:01.759Z,996.82
2018-03-02T03:32:01.743Z,996.86
2018-03-02T03:33:01.721Z,996.72
2018-03-02T03:34:01.728Z,996.77
2018-03-02T03:35:01.699Z,996.77
2018-03-02T03:36:01.661Z,996.79
2018-03-02T03:37:01.796Z,996.81
2018-03-02T03:38:01.623Z,996.69
2018-03-02T03:39:01.604Z,996.76
2018-03-02T03:40:01.588Z,996.72
2018-03-02T03:41:01.573Z,996.69
2018-03-02T03:42:01.552Z,996.71
2018-03-02T03:43:01.530Z,996.68
2018-03-02T03:44:01.508Z,996.72
2018-03-02T03:45:01.489Z,996.69
2018-03-02T03:46:01.470Z,996.67
2018-03-02T03:47:01.451Z,996.69
2018-03-02T03:48:01.431Z,996.52
2018-03-02T03:49:01.417Z,996.64
2018-03-02T03:50:01.393Z,996.63
2018-03-02T03:51:01.380Z,996.48
2018-03-02T03:52:01.357Z,996.68
2018-03-02T03:53:01.338Z,996.60
2018-03-02T03:54:01.317Z,996.49
2018-03-02T03:55:01.298Z,996.54
2018-03-02T03:56:01.276Z,996.56
2018-03-02T03:57:01.257Z,996.49
2018-03-02T03:58:01.238Z,996.48
2018-03-02T03:59:01.224Z,996.54
2018-03-02T04:00:01.208Z,996.51
2018-03-02T04:01:01.184Z,996.52
2018-03-02T04:02:01.181Z,996.51
2018-03-02T04:03:01.144Z,996.58
2018-03-02T04:04:01.125Z,996.47
2018-03-02T04:05:01.120Z,996.41
2018-03-02T04:06:01.088Z,996.53
2018-03-02T04:07:01.067Z,996.42
2018-03-02T04:08:01.044Z,996.53
2018-03-02T04:09:01.025Z,996.42
2018-03-02T04:10:01.006Z,996.49
2018-03-02T04:11:00.990Z,996.50
2018-03-02T04:12:00.974Z,996.51
2018-03-02T04:13:00.950Z,996.42
2018-03-02T04:14:00.931Z,996.41
2018-03-02T04:15:00.911Z,996.44
2018-03-02T04:16:00.903Z,996.42
2018-03-02T04:17:00.870Z,996.35
2018-03-02T04:18:00.850Z,996.30
2018-03-02T04:19:00.832Z,996.33
2018-03-02T04:20:00.811Z,996.38
2018-03-02T04:21:00.792Z,996.40
2018-03-02T04:22:00.772Z,996.44
2018-03-02T04:23:00.753Z,996.34
2018-03-02T04:24:00.736Z,996.35
2018-03-02T04:25:00.715Z,996.36
2018-03-02T04:26:00.697Z,996.31
2018-03-02T04:27:00.677Z,996.29
2018-03-02T04:28:00.654Z,996.33
2018-03-02T04:29:00.637Z,996.24
2018-03-02T04:30:00.621Z,996.33
2018-03-02T04:31:00.596Z,996.31
2018-03-02T04:32:00.580Z,996.36
2018-03-02T04:33:00.558Z,996.35
2018-03-02T04:34:00.540Z,996.32
2018-03-02T04:35:00.522Z,996.30
2018-03-02T04:36:00.501Z,996.34
2018-03-02T04:37:00.481Z,996.21
2018-03-02T04:38:00.462Z,996.31
2018-03-02T04:39:00.443Z,996.36
2018-03-02T04:40:00.424Z,996.28
2018-03-02T04:41:00.402Z,996.29
2018-03-02T04:42:00.381Z,996.26
2018-03-02T04:43:00.363Z,996.26
2018-03-02T04:44:00.346Z,996.31
2018-03-02T04:45:00.329Z,996.30
2018-03-02T04:46:00.306Z,996.21
2018-03-02T04:47:00.286Z,996.31
2018-03-02T04:48:00.265Z,996.19
2018-03-02T04:49:00.245Z,996.30
2018-03-02T04:50:00.225Z,996.19
2018-03-02T04:51:00.219Z,996.26
2018-03-02T04:52:00.186Z,996.33
2018-03-02T04:53:00.166Z,996.28
2018-03-02T04:54:00.159Z,996.22
2018-03-02T04:55:00.127Z,996.25
2018-03-02T04:56:00.110Z,996.28
2018-03-02T04:57:00.090Z,996.08
2018-03-02T04:58:00.071Z,996.23
2018-03-02T04:59:00.054Z,996.26
2018-03-02T05:00:00.029Z,996.22
2018-03-02T05:01:00.009Z,996.22
2018-03-02T05:01:59.990Z,996.15
2018-03-02T05:02:59.979Z,996.20
2018-03-02T05:03:59.952Z,996.23
2018-03-02T05:04:59.934Z,996.23
2018-03-02T05:05:59.913Z,996.23
2018-03-02T05:06:59.994Z,996.16
2018-03-02T05:07:59.877Z,996.24
2018-03-02T05:08:59.853Z,996.23
2018-03-02T05:09:59.833Z,996.18
2018-03-02T05:10:59.814Z,996.18
2018-03-02T05:11:59.791Z,996.33
2018-03-02T05:12:59.777Z,996.14
2018-03-02T05:13:59.752Z,996.20
2018-03-02T05:14:59.734Z,996.21
2018-03-02T05:15:59.714Z,996.14
2018-03-02T05:16:59.697Z,996.14
2018-03-02T05:17:59.677Z,996.18
2018-03-02T05:18:59.668Z,996.20
2018-03-02T05:19:59.635Z,996.12
2018-03-02T05:20:59.614Z,996.18
2018-03-02T05:21:59.596Z,996.15
2018-03-02T05:22:59.580Z,996.17
2018-03-02T05:23:59.554Z,996.20
2018-03-02T05:24:59.534Z,996.07
2018-03-02T05:25:59.518Z,996.12
2018-03-02T05:26:59.506Z,995.98
2018-03-02T05:27:59.476Z,996.07
2018-03-02T05:28:59.457Z,996.00
2018-03-02T05:29:59.437Z,995.93
2018-03-02T05:30:59.419Z,996.00
2018-03-02T05:31:59.399Z,995.98
2018-03-02T05:32:59.376Z,995.96
2018-03-02T05:33:59.359Z,996.00
2018-03-02T05:34:59.337Z,995.94
2018-03-02T05:35:59.320Z,995.92
2018-03-02T05:36:59.299Z,995.97
2018-03-02T05:37:59.281Z,995.92
2018-03-02T05:38:59.276Z,995.89
2018-03-02T05:39:59.239Z,995.85
2018-03-02T05:40:59.222Z,995.93
2018-03-02T05:41:59.212Z,995.88
2018-03-02T05:42:59.177Z,995.93
2018-03-02T05:43:59.159Z,995.80
2018-03-02T05:44:59.140Z,995.87
2018-03-02T05:45:59.124Z,995.71
2018-03-02T05:46:59.101Z,995.83
2018-03-02T05:47:59.078Z,995.84
2018-03-02T05:48:59.064Z,995.77
2018-03-02T05:49:59.039Z,995.79
2018-03-02T05:50:59.025Z,995.69
2018-03-02T05:51:59.002Z,995.74
2018-03-02T05:52:58.982Z,995.77
2018-03-02T05:53:58.968Z,995.83
2018-03-02T05:54:58.946Z,995.83
2018-03-02T05:55:58.922Z,995.85
2018-03-02T05:56:58.915Z,995.74
2018-03-02T05:57:58.887Z,995.77
2018-03-02T05:58:58.864Z,995.77
2018-03-02T05:59:58.841Z,995.76
2018-03-02T06:00:58.835Z,995.81
2018-03-02T06:01:58.801Z,995.69
2018-03-02T06:02:58.782Z,995.72
2018-03-02T06:03:58.763Z,995.62
2018-03-02T06:04:58.745Z,995.70
2018-03-02T06:05:58.724Z,995.71
2018-03-02T06:06:58.706Z,995.63
2018-03-02T06:07:58.681Z,995.68
2018-03-02T06:08:58.667Z,995.74
2018-03-02T06:09:58.642Z,995.72
2018-03-02T06:10:58.622Z,995.72
2018-03-02T06:11:58.602Z,995.79
2018-03-02T06:12:58.585Z,995.75
2018-03-02T06:13:58.573Z,995.73
2018-03-02T06:14:58.543Z,995.77
2018-03-02T06:15:58.525Z,995.77
2018-03-02T06:16:58.507Z,995.66
2018-03-02T06:17:58.484Z,995.67
2018-03-02T06:18:58.465Z,995.79
2018-03-02T06:19:58.442Z,995.74
2018-03-02T06:20:58.433Z,995.64
2018-03-02T06:21:58.404Z,995.77
2018-03-02T06:22:58.382Z,995.74
2018-03-02T06:23:58.364Z,995.80
2018-03-02T06:24:58.347Z,995.72
2018-03-02T06:25:58.330Z,995.74
2018-03-02T06:26:58.306Z,995.72
2018-03-02T06:27:58.284Z,995.75
2018-03-02T06:28:58.267Z,995.72
2018-03-02T06:29:58.249Z,995.74
2018-03-02T06:30:58.224Z,995.70
2018-03-02T06:31:58.206Z,995.67
2018-03-02T06:32:58.182Z,995.73
2018-03-02T06:33:58.161Z,995.71
2018-03-02T06:34:58.143Z,995.76
2018-03-02T06:35:58.148Z,995.76
2018-03-02T06:36:58.103Z,995.76
2018-03-02T06:37:58.084Z,995.64
2018-03-02T06:38:58.063Z,995.72
2018-03-02T06:39:58.041Z,995.73
2018-03-02T06:40:58.025Z,995.64
2018-03-02T06:41:58.006Z,995.63
2018-03-02T06:42:57.986Z,995.65
2018-03-02T06:43:57.963Z,995.55
2018-03-02T06:44:57.943Z,995.53
2018-03-02T06:45:57.924Z,995.63
2018-03-02T06:46:57.904Z,995.62
2018-03-02T06:47:57.886Z,995.54
2018-03-02T06:48:57.861Z,995.52
2018-03-02T06:49:57.841Z,995.57
2018-03-02T06:50:57.826Z,995.56
2018-03-02T06:51:57.803Z,995.52
2018-03-02T06:52:57.786Z,995.55
2018-03-02T06:53:57.766Z,995.52
2018-03-02T06:54:57.746Z,995.44
2018-03-02T06:55:57.722Z,995.54
2018-03-02T06:56:57.711Z,995.27
2018-03-02T06:57:57.687Z,995.44
2018-03-02T06:58:57.662Z,995.51
2018-03-02T06:59:57.642Z,995.47
2018-03-02T07:00:57.623Z,995.36
2018-03-02T07:01:57.606Z,995.45
2018-03-02T07:02:57.584Z,995.46
2018-03-02T07:03:57.565Z,995.34
2018-03-02T07:04:57.545Z,995.38
2018-03-02T07:05:57.526Z,995.40
2018-03-02T07:06:57.811Z,995.34
2018-03-02T07:07:57.482Z,995.40
2018-03-02T07:08:57.463Z,995.37
2018-03-02T07:09:57.447Z,995.38
2018-03-02T07:10:57.450Z,995.39
2018-03-02T07:11:57.404Z,995.31
2018-03-02T07:12:57.785Z,995.35
2018-03-02T07:13:57.375Z,995.48
2018-03-02T07:14:57.349Z,995.33
2018-03-02T07:15:57.445Z,995.28
2018-03-02T07:16:57.314Z,995.30
2018-03-02T07:17:57.286Z,995.26
2018-03-02T07:18:57.567Z,995.30
2018-03-02T07:19:57.243Z,995.25
2018-03-02T07:20:57.229Z,995.22
2018-03-02T07:21:57.204Z,995.26
2018-03-02T07:22:57.185Z,995.25
2018-03-02T07:23:57.170Z,995.23
2018-03-02T07:24:57.446Z,995.17
2018-03-02T07:25:57.126Z,995.20
2018-03-02T07:26:57.109Z,995.23
2018-03-02T07:27:57.087Z,995.19
2018-03-02T07:28:57.066Z,995.16
2018-03-02T07:29:57.044Z,995.15
2018-03-02T07:30:57.030Z,995.21
2018-03-02T07:31:57.005Z,995.18
2018-03-02T07:32:56.985Z,995.22
2018-03-02T07:33:56.975Z,995.25
2018-03-02T07:34:56.947Z,995.24
2018-03-02T07:35:56.932Z,995.38
2018-03-02T07:36:56.910Z,995.22
2018-03-02T07:37:56.893Z,995.26
2018-03-02T07:38:56.869Z,995.18
2018-03-02T07:39:56.846Z,995.28
2018-03-02T07:40:56.826Z,995.20
2018-03-02T07:41:56.807Z,995.25
2018-03-02T07:42:56.793Z,995.24
2018-03-02T07:43:56.770Z,995.23
2018-03-02T07:44:56.753Z,995.19
2018-03-02T07:45:56.732Z,995.23
2018-03-02T07:46:56.712Z,995.22
2018-03-02T07:47:56.693Z,995.24
2018-03-02T07:48:56.672Z,995.25
2018-03-02T07:49:56.657Z,995.18
2018-03-02T07:50:56.633Z,995.23
2018-03-02T07:51:56.615Z,995.11
2018-03-02T07:52:56.596Z,995.14
2018-03-02T07:53:56.578Z,995.22
2018-03-02T07:54:56.562Z,995.15
2018-03-02T07:55:56.536Z,995.23
2018-03-02T07:56:56.525Z,995.03
2018-03-02T07:57:56.501Z,995.02
2018-03-02T07:58:56.478Z,995.04
2018-03-02T07:59:56.461Z,995.06
2018-03-02T08:00:56.443Z,995.08
2018-03-02T08:01:56.429Z,995.06
2018-03-02T08:02:56.403Z,994.97
2018-03-02T08:03:56.384Z,994.97
2018-03-02T08:04:56.372Z,994.99
2018-03-02T08:05:56.350Z,995.02
2018-03-02T08:06:56.333Z,995.05
2018-03-02T08:07:56.313Z,995.07
2018-03-02T08:08:56.288Z,994.99
2018-03-02T08:09:56.270Z,994.97
2018-03-02T08:10:56.257Z,994.96
2018-03-02T08:11:56.234Z,995.02
2018-03-02T08:12:56.216Z,994.97
2018-03-02T08:13:56.200Z,995.00
2018-03-02T08:14:56.178Z,995.00
2018-03-02T08:15:56.157Z,994.93
2018-03-02T08:16:56.138Z,994.77
2018-03-02T08:17:56.120Z,994.88
2018-03-02T08:18:56.102Z,994.89
2018-03-02T08:19:56.087Z,994.79
2018-03-02T08:20:56.067Z,994.96
2018-03-02T08:21:56.052Z,994.96
2018-03-02T08:22:56.028Z,995.02
2018-03-02T08:23:56.017Z,994.95
2018-03-02T08:24:55.992Z,994.98
2018-03-02T08:25:55.973Z,994.94
2018-03-02T08:26:55.955Z,995.01
2018-03-02T08:27:55.934Z,994.96
2018-03-02T08:28:55.916Z,994.95
2018-03-02T08:29:55.942Z,994.86
2018-03-02T08:30:55.884Z,994.86
2018-03-02T08:31:55.863Z,994.80
2018-03-02T08:32:55.844Z,994.91
2018-03-02T08:33:55.827Z,994.90
2018-03-02T08:34:55.811Z,994.92
2018-03-02T08:35:55.789Z,994.96
2018-03-02T08:36:55.770Z,994.84
2018-03-02T08:37:55.753Z,994.90
2018-03-02T08:38:55.739Z,995.00
2018-03-02T08:39:55.714Z,994.98
2018-03-02T08:40:55.696Z,995.04
2018-03-02T08:41:55.680Z,994.92
2018-03-02T08:42:55.674Z,994.90
2018-03-02T08:43:55.645Z,994.99
2018-03-02T08:44:55.628Z,994.94
2018-03-02T08:45:55.610Z,994.92
2018-03-02T08:46:55.595Z,994.85
2018-03-02T08:47:55.571Z,994.90
2018-03-02T08:48:55.554Z,994.90
2018-03-02T08:49:55.624Z,994.84
2018-03-02T08:50:55.519Z,994.98
2018-03-02T08:51:55.500Z,994.92
2018-03-02T08:52:55.488Z,994.88
2018-03-02T08:53:55.480Z,994.88
2018-03-02T08:54:55.448Z,994.80
2018-03-02T08:55:55.431Z,994.85
2018-03-02T08:56:55.429Z,994.73
2018-03-02T08:57:55.396Z,994.76
2018-03-02T08:58:55.378Z,994.74
2018-03-02T08:59:55.363Z,994.75
2018-03-02T09:00:55.440Z,994.74
2018-03-02T09:01:55.328Z,994.66
2018-03-02T09:02:55.308Z,994.71
2018-03-02T09:03:55.292Z,994.73
2018-03-02T09:04:55.271Z,994.81
2018-03-02T09:05:55.253Z,994.61
2018-03-02T09:06:55.236Z,994.76
2018-03-02T09:07:55.217Z,994.79
2018-03-02T09:08:55.200Z,994.74
2018-03-02T09:09:55.182Z,994.71
2018-03-02T09:10:55.164Z,994.86
2018-03-02T09:11:55.149Z,994.75
2018-03-02T09:12:55.126Z,994.66
2018-03-02T09:13:55.118Z,994.65
2018-03-02T09:14:55.091Z,994.69
2018-03-02T09:15:55.075Z,994.60
2018-03-02T09:16:55.058Z,994.68
2018-03-02T09:17:55.040Z,994.74
2018-03-02T09:18:55.024Z,994.73
2018-03-02T09:19:55.003Z,994.76
2018-03-02T09:20:54.986Z,994.70
2018-03-02T09:21:54.968Z,994.57
2018-03-02T09:22:54.951Z,994.68
2018-03-02T09:23:54.935Z,994.58
2018-03-02T09:24:54.916Z,994.64
2018-03-02T09:25:54.903Z,994.61
2018-03-02T09:26:54.882Z,994.63
2018-03-02T09:27:54.869Z,994.66
2018-03-02T09:28:54.849Z,994.62
2018-03-02T09:29:54.832Z,994.58
2018-03-02T09:30:54.815Z,994.52
2018-03-02T09:31:54.795Z,994.59
2018-03-02T09:32:54.784Z,994.57
2018-03-02T09:33:54.764Z,994.52
2018-03-02T09:34:54.747Z,994.35
2018-03-02T09:35:54.732Z,994.39
2018-03-02T09:36:55.062Z,994.41
2018-03-02T09:37:54.695Z,994.38
2018-03-02T09:38:54.678Z,994.39
2018-03-02T09:39:54.663Z,994.19
2018-03-02T09:40:54.643Z,994.39
2018-03-02T09:41:54.626Z,994.51
2018-03-02T09:42:54.609Z,994.48
2018-03-02T09:43:54.589Z,994.43
2018-03-02T09:44:54.575Z,994.45
2018-03-02T09:45:54.570Z,994.43
2018-03-02T09:46:54.544Z,994.28
2018-03-02T09:47:54.536Z,994.42
2018-03-02T09:48:54.508Z,994.52
2018-03-02T09:49:54.491Z,994.31
2018-03-02T09:50:54.481Z,994.23
2018-03-02T09:51:54.453Z,994.40
2018-03-02T09:52:54.436Z,994.29
2018-03-02T09:53:54.419Z,994.23
2018-03-02T09:54:54.407Z,994.33
2018-03-02T09:55:54.393Z,994.28
2018-03-02T09:56:54.370Z,994.25
2018-03-02T09:57:54.353Z,994.29
2018-03-02T09:58:54.336Z,994.26
2018-03-02T09:59:54.319Z,994.41
2018-03-02T10:00:54.305Z,994.30
2018-03-02T10:01:54.286Z,994.32
2018-03-02T10:02:54.270Z,994.32
2018-03-02T10:03:54.252Z,994.28
2018-03-02T10:04:54.235Z,994.31
2018-03-02T10:05:54.218Z,994.39
2018-03-02T10:06:54.502Z,994.30
2018-03-02T10:07:54.183Z,994.18
2018-03-02T10:08:54.166Z,994.27
2018-03-02T10:09:54.150Z,994.38
2018-03-02T10:10:54.171Z,994.43
2018-03-02T10:11:54.125Z,994.32
2018-03-02T10:12:54.101Z,994.13
2018-03-02T10:13:54.088Z,994.08
2018-03-02T10:14:54.068Z,994.18
2018-03-02T10:15:54.054Z,994.29
2018-03-02T10:16:54.038Z,994.19
2018-03-02T10:17:54.021Z,994.28
2018-03-02T10:18:54.005Z,994.22
2018-03-02T10:19:53.989Z,994.23
2018-03-02T10:20:53.978Z,994.25
2018-03-02T10:21:53.956Z,994.14
2018-03-02T10:22:53.937Z,994.17
2018-03-02T10:23:53.923Z,994.11
2018-03-02T10:24:53.908Z,994.09
2018-03-02T10:25:53.891Z,994.07
2018-03-02T10:26:53.875Z,994.11
2018-03-02T10:27:53.859Z,993.96
2018-03-02T10:28:53.845Z,994.08
2018-03-02T10:29:53.827Z,994.10
2018-03-02T10:30:53.811Z,994.10
2018-03-02T10:31:53.792Z,994.04
2018-03-02T10:32:53.776Z,994.12
2018-03-02T10:33:53.761Z,994.09
2018-03-02T10:34:53.745Z,994.05
2018-03-02T10:35:53.730Z,993.96
2018-03-02T10:36:53.715Z,994.01
2018-03-02T10:37:53.701Z,994.08
2018-03-02T10:38:53.683Z,994.05
2018-03-02T10:39:53.664Z,993.98
2018-03-02T10:40:53.649Z,993.97
2018-03-02T10:41:53.634Z,994.01
2018-03-02T10:42:53.622Z,994.06
2018-03-02T10:43:53.609Z,994.04
2018-03-02T10:44:53.606Z,993.95
2018-03-02T10:45:53.573Z,993.97
2018-03-02T10:46:53.558Z,994.06
2018-03-02T10:47:53.542Z,994.07
2018-03-02T10:48:53.540Z,994.00
2018-03-02T10:49:53.512Z,993.99
2018-03-02T10:50:53.495Z,994.08
2018-03-02T10:51:53.478Z,994.04
2018-03-02T10:52:53.466Z,993.98
2018-03-02T10:53:53.452Z,993.66
2018-03-02T10:54:53.432Z,994.01
2018-03-02T10:55:53.421Z,994.03
2018-03-02T10:56:53.402Z,994.10
2018-03-02T10:57:53.388Z,994.05
2018-03-02T10:58:53.371Z,994.04
2018-03-02T10:59:53.358Z,994.03
2018-03-02T11:00:53.340Z,993.99
2018-03-02T11:01:53.347Z,994.04
2018-03-02T11:02:53.311Z,994.02
2018-03-02T11:03:53.292Z,993.92
2018-03-02T11:04:53.282Z,993.98
2018-03-02T11:05:53.262Z,993.85
2018-03-02T11:06:53.397Z,993.91
2018-03-02T11:07:53.233Z,993.90
2018-03-02T11:08:53.220Z,993.88
2018-03-02T11:09:53.203Z,993.95
2018-03-02T11:10:53.189Z,993.79
2018-03-02T11:11:53.170Z,993.93
2018-03-02T11:12:53.160Z,993.85
2018-03-02T11:13:53.143Z,993.90
2018-03-02T11:14:53.126Z,993.90
2018-03-02T11:15:53.113Z,993.94
2018-03-02T11:16:53.094Z,993.87
2018-03-02T11:17:53.083Z,993.85
2018-03-02T11:18:53.065Z,993.90
2018-03-02T11:19:53.061Z,994.05
2018-03-02T11:20:53.039Z,993.84
2018-03-02T11:21:53.022Z,993.85
2018-03-02T11:22:53.010Z,993.87
2018-03-02T11:23:52.990Z,993.65
2018-03-02T11:24:52.981Z,993.53
2018-03-02T11:25:52.960Z,993.63
2018-03-02T11:26:52.950Z,993.69
2018-03-02T11:27:52.935Z,993.75
2018-03-02T11:28:52.917Z,993.76
2018-03-02T11:29:52.906Z,993.64
2018-03-02T11:30:52.887Z,993.67
2018-03-02T11:31:52.872Z,993.65
2018-03-02T11:32:52.861Z,993.64
2018-03-02T11:33:52.867Z,993.57
2018-03-02T11:34:52.826Z,993.55
2018-03-02T11:35:52.810Z,993.54
2018-03-02T11:36:53.098Z,993.53
2018-03-02T11:37:52.786Z,993.54
2018-03-02T11:38:52.766Z,993.34
2018-03-02T11:39:52.761Z,993.61
2018-03-02T11:40:52.741Z,993.56
2018-03-02T11:41:52.725Z,993.47
2018-03-02T11:42:52.862Z,993.70
2018-03-02T11:43:52.692Z,993.54
2018-03-02T11:44:52.677Z,993.63
2018-03-02T11:45:52.662Z,993.61
2018-03-02T11:46:52.673Z,993.52
2018-03-02T11:47:52.634Z,993.52
2018-03-02T11:48:52.618Z,993.51
2018-03-02T11:49:52.604Z,993.60
2018-03-02T11:50:52.604Z,993.55
2018-03-02T11:51:52.586Z,993.54
2018-03-02T11:52:52.561Z,993.56
2018-03-02T11:53:52.548Z,993.53
2018-03-02T11:54:52.533Z,993.58
2018-03-02T11:55:52.515Z,993.54
2018-03-02T11:56:52.505Z,993.62
2018-03-02T11:57:52.487Z,993.53
2018-03-02T11:58:52.493Z,993.40
2018-03-02T11:59:52.461Z,993.55
2018-03-02T12:00:52.447Z,993.51
2018-03-02T12:01:52.433Z,993.44
2018-03-02T12:02:52.423Z,993.60
2018-03-02T12:03:52.402Z,993.64
2018-03-02T12:04:52.388Z,993.53
2018-03-02T12:05:52.375Z,993.52
2018-03-02T12:06:52.362Z,993.57
2018-03-02T12:07:52.349Z,993.66
2018-03-02T12:08:52.338Z,993.66
2018-03-02T12:09:52.323Z,993.54
2018-03-02T12:10:52.310Z,993.46
2018-03-02T12:11:52.291Z,993.53
2018-03-02T12:12:52.277Z,993.52
2018-03-02T12:13:52.264Z,993.52
2018-03-02T12:14:52.255Z,993.51
2018-03-02T12:15:52.245Z,993.51
2018-03-02T12:16:52.287Z,993.44
2018-03-02T12:17:52.214Z,993.55
2018-03-02T12:18:52.202Z,993.56
2018-03-02T12:19:52.191Z,993.48
2018-03-02T12:20:52.178Z,993.49
2018-03-02T12:21:52.166Z,993.52
2018-03-02T12:22:52.175Z,993.46
2018-03-02T12:23:52.143Z,993.49
2018-03-02T12:24:52.137Z,993.35
2018-03-02T12:25:52.119Z,993.38
2018-03-02T12:26:52.109Z,993.36
2018-03-02T12:27:52.099Z,993.29